Long Creek, North Carolina
Current Conditions -  °F | °C
As of 4:50 PM on Monday 26 Jan 2015 (Local Time) from KJQF Reporting Station
Overcast Overcast  
Wind Chill: 50°   Ceiling: 10000
Heat Index: 50°   Visibility: 10mi
Dew Point: 37°   Wind: 5mph
Humidity: 62%   Direction: 270°W
Pressure: 29.66"   Gusts: NA
Location:  35.4129°N, 80.8607°W
Report Text: KJQF 262150Z 27004KT 10SM OVC100 10/03 A2966
Loading
Personal Weather Stations






























Interactive Weather Map New forecast layout! Learn more

10-Day Weather Forecast

Advertisements
Track Severe Weather on mobile